»·PEaware :: N961LT L52-L88

N961LT :: L52-L88

FLIGHT INFORMATION

Flight Status: Arrived
Operator: Privately registered:
United States
More flights under this callsign
Pilot: Kevin G. (19189)
Aircraft: CESSNA 172 SKYHAWK
(C172)
More flights by this aircraft type
Origin: L52 Oceano Co
United States
Destination: L88 New Cuyama
United States
More flights between these airports :: More routes between these airports
Route:
File this flight plan on PilotEdge
Remarks: Sample flight plan
Altitude:
(Current/Filed)
7,500ft
Speed:
(Current/Filed)
105kts
Departed: 17-May-18 09:19 AM
Arrived: 17-May-18 10:01 AM
Distance/Time
Traveled:
47nm/0:42
Distance/Time
To Go:
Arrived

Flight Plot

Page will automatically refresh every two minutes.


Map Options




Map Legend


Flown Route
Filed Route
Departure Airport
Arrival Airport
Navaid (VOR, NDB)
Fix

Horizontal Profiles

Position Reports

Time Latitude Longitude Heading Altitude Ground
Speed
17-May-18 09:03 35.103452 -120.624820 213 18ft 0kts
17-May-18 09:04 35.103452 -120.624820 213 18ft 0kts
17-May-18 09:08 35.103452 -120.624820 213 18ft 0kts
17-May-18 09:09 35.103452 -120.624820 213 18ft 0kts
17-May-18 09:10 35.103452 -120.624820 213 18ft 0kts
17-May-18 09:11 35.103452 -120.624820 213 18ft 0kts
17-May-18 09:12 35.103452 -120.624820 213 18ft 0kts
17-May-18 09:13 35.103452 -120.624820 213 18ft 0kts
17-May-18 09:14 35.103132 -120.624375 119 18ft 6kts
17-May-18 09:15 35.102865 -120.623983 173 18ft 0kts
17-May-18 09:16 35.101906 -120.624012 130 18ft 10kts
17-May-18 09:17 35.099532 -120.619585 6 18ft 4kts
17-May-18 09:18 35.099626 -120.619593 30 18ft 0kts
17-May-18 09:19 35.103570 -120.625961 299 159ft 65kts
17-May-18 09:20 35.109849 -120.628037 178 961ft 66kts
17-May-18 09:21 35.103011 -120.608469 102 1711ft 66kts
17-May-18 09:22 35.095992 -120.588318 113 2417ft 64kts
17-May-18 09:23 35.091545 -120.565791 99 3128ft 72kts
17-May-18 09:24 35.086823 -120.538381 100 3757ft 90kts
17-May-18 09:25 35.081444 -120.508684 99 4494ft 89kts
17-May-18 09:26 35.075964 -120.479458 99 5189ft 88kts
17-May-18 09:27 35.070665 -120.450402 96 5849ft 89kts
17-May-18 09:28 35.065805 -120.418826 97 6387ft 100kts
17-May-18 09:29 35.061083 -120.388435 97 6765ft 108kts
17-May-18 09:30 35.055430 -120.352314 97 7136ft 109kts
17-May-18 09:31 35.049786 -120.316623 97 7448ft 113kts
17-May-18 09:32 35.043715 -120.277518 98 7454ft 124kts
17-May-18 09:33 35.037789 -120.240244 98 7453ft 110kts
17-May-18 09:34 35.032102 -120.204974 98 7452ft 105kts
17-May-18 09:35 35.026143 -120.170194 99 7449ft 104kts
17-May-18 09:36 35.019972 -120.135707 99 7447ft 103kts
17-May-18 09:37 35.015436 -120.110550 98 7445ft 103kts
17-May-18 09:38 35.013097 -120.097636 98 7444ft 103kts
17-May-18 09:39 35.007021 -120.064350 98 7533ft 98kts
17-May-18 09:40 35.000867 -120.030803 99 7540ft 102kts
17-May-18 09:41 34.999485 -120.023220 98 7539ft 102kts
17-May-18 09:42 34.999485 -120.023220 98 7539ft 102kts
17-May-18 09:43 34.998817 -120.019585 99 7539ft 102kts
17-May-18 09:44 34.992342 -119.983719 99 7190ft 123kts
17-May-18 09:45 34.987289 -119.954968 99 6385ft 118kts
17-May-18 09:46 34.982814 -119.928813 99 5678ft 113kts
17-May-18 09:47 34.979038 -119.906962 98 5522ft 80kts
17-May-18 09:48 34.974869 -119.882529 99 4840ft 104kts
17-May-18 09:49 34.967465 -119.854930 111 4130ft 107kts
17-May-18 09:50 34.958705 -119.831426 115 3751ft 92kts
17-May-18 09:51 34.950706 -119.810299 111 3495ft 78kts
17-May-18 09:52 34.941273 -119.783577 111 3506ft 90kts
17-May-18 09:53 34.930813 -119.753874 111 3515ft 100kts
17-May-18 09:54 34.919578 -119.722244 111 3522ft 102kts
17-May-18 09:55 34.909262 -119.693743 111 3528ft 102kts
17-May-18 09:56 34.901915 -119.671992 91 3534ft 100kts
17-May-18 09:57 34.915413 -119.659474 36 3507ft 73kts
17-May-18 09:58 34.927013 -119.655087 304 2938ft 80kts
17-May-18 09:59 34.932609 -119.668039 298 2520ft 60kts
17-May-18 10:00 34.938254 -119.681345 301 2194ft 61kts
17-May-18 10:01 34.941588 -119.689594 292 2160ft 22kts
17-May-18 10:02 34.942903 -119.690634 146 2156ft 0kts
17-May-18 10:03 34.942903 -119.690634 146 2156ft 0kts
17-May-18 10:04 34.942903 -119.690634 146 2156ft 0kts
17-May-18 10:05 34.942903 -119.690634 146 2156ft 0kts
17-May-18 10:06 34.942903 -119.690634 146 2156ft 0kts
17-May-18 10:07 34.942903 -119.690634 146 2156ft 0kts
17-May-18 10:08 34.942903 -119.690634 146 2156ft 0kts
17-May-18 10:09 34.942903 -119.690634 146 2156ft 0kts

Navigation Log

Ident Type
Flight plan parsing failed, navigation log unavailable